createdAt,value
2023-05-19T00:01:17.787Z,12.18
2023-05-19T00:04:21.319Z,12.14
2023-05-19T00:07:30.447Z,12.09
2023-05-19T00:10:33.894Z,12.06
2023-05-19T00:13:36.925Z,12.09
2023-05-19T00:16:40.304Z,12.04
2023-05-19T00:19:45.197Z,12.09
2023-05-19T00:22:48.736Z,12.06
2023-05-19T00:25:52.343Z,12.11
2023-05-19T00:28:55.348Z,12.12
2023-05-19T00:31:57.962Z,12.16
2023-05-19T00:35:00.944Z,12.18
2023-05-19T00:38:03.565Z,12.15
2023-05-19T00:41:07.287Z,12.14
2023-05-19T00:44:09.974Z,12.12
2023-05-19T00:47:12.934Z,12.18
2023-05-19T00:50:15.558Z,12.14
2023-05-19T00:53:19.356Z,12.07
2023-05-19T00:56:22.951Z,12.03
2023-05-19T00:59:26.264Z,12.01
2023-05-19T01:02:29.853Z,12.01
2023-05-19T01:05:33.062Z,11.97
2023-05-19T01:08:37.795Z,11.94
2023-05-19T01:11:40.793Z,11.90
2023-05-19T01:14:44.258Z,11.83
2023-05-19T01:18:07.745Z,11.83
2023-05-19T01:21:36.556Z,11.85
2023-05-19T01:25:01.084Z,11.80
2023-05-19T01:28:41.245Z,11.80
2023-05-19T01:31:47.953Z,11.81
2023-05-19T01:34:51.134Z,11.74
2023-05-19T01:37:59.855Z,11.67
2023-05-19T01:41:04.353Z,11.64
2023-05-19T01:44:08.297Z,11.65
2023-05-19T01:47:11.164Z,11.67
2023-05-19T01:50:14.044Z,11.70
2023-05-19T01:53:17.153Z,11.75
2023-05-19T01:56:32.619Z,11.75
2023-05-19T01:59:57.911Z,11.78
2023-05-19T02:03:31.603Z,11.75
2023-05-19T02:06:46.093Z,11.70
2023-05-19T02:09:54.107Z,11.70
2023-05-19T02:12:58.759Z,11.73
2023-05-19T02:16:05.601Z,11.68
2023-05-19T02:19:20.952Z,11.71
2023-05-19T02:22:23.827Z,11.72
2023-05-19T02:25:27.252Z,11.70
2023-05-19T02:28:30.156Z,11.67
2023-05-19T02:31:35.689Z,11.63
2023-05-19T02:34:38.623Z,11.64
2023-05-19T02:37:41.635Z,11.69
2023-05-19T02:40:44.693Z,11.69
2023-05-19T02:43:47.281Z,11.72
2023-05-19T02:46:50.237Z,11.74
2023-05-19T02:49:52.921Z,11.75
2023-05-19T02:52:55.803Z,11.75
2023-05-19T02:55:58.551Z,11.74
2023-05-19T02:59:01.689Z,11.76
2023-05-19T03:02:04.493Z,11.78
2023-05-19T03:05:08.447Z,11.86
2023-05-19T03:08:11.086Z,11.82
2023-05-19T03:11:15.422Z,11.81
2023-05-19T03:14:18.748Z,11.79
2023-05-19T03:17:21.760Z,11.75
2023-05-19T03:20:24.689Z,11.75
2023-05-19T03:23:28.108Z,11.75
2023-05-19T03:26:30.788Z,11.74
2023-05-19T03:29:33.746Z,11.75
2023-05-19T03:32:37.915Z,11.82
2023-05-19T03:35:41.156Z,11.88
2023-05-19T03:38:43.956Z,11.89
2023-05-19T03:41:46.925Z,11.94
2023-05-19T03:44:49.741Z,12.02
2023-05-19T03:47:56.183Z,12.00
2023-05-19T03:51:01.445Z,12.07
2023-05-19T03:54:04.585Z,12.15
2023-05-19T03:57:07.343Z,12.24
2023-05-19T04:00:13.789Z,12.37
2023-05-19T04:03:16.865Z,12.48
2023-05-19T04:06:20.089Z,12.54
2023-05-19T04:09:24.148Z,12.62
2023-05-19T04:12:26.697Z,12.71
2023-05-19T04:15:29.646Z,12.81
2023-05-19T04:18:32.341Z,12.85
2023-05-19T04:21:35.289Z,12.85
2023-05-19T04:24:37.834Z,12.92
2023-05-19T04:27:41.057Z,13.02
2023-05-19T04:30:46.739Z,13.08
2023-05-19T04:33:50.039Z,13.22
2023-05-19T04:36:53.527Z,13.36
2023-05-19T04:39:57.226Z,13.44
2023-05-19T04:43:02.370Z,13.53
2023-05-19T04:46:06.208Z,13.63
2023-05-19T04:49:08.902Z,13.75
2023-05-19T04:52:12.599Z,13.96
2023-05-19T04:55:16.013Z,14.21
2023-05-19T04:58:19.799Z,14.30
2023-05-19T05:01:26.006Z,14.42
2023-05-19T05:04:29.559Z,14.52
2023-05-19T05:07:32.680Z,14.52
2023-05-19T05:10:36.672Z,14.58
2023-05-19T05:13:40.966Z,14.68
2023-05-19T05:16:44.941Z,14.82
2023-05-19T05:19:48.888Z,14.90
2023-05-19T05:22:52.375Z,15.00
2023-05-19T05:25:55.768Z,14.98
2023-05-19T05:28:58.953Z,15.00
2023-05-19T05:32:01.790Z,15.24
2023-05-19T05:35:05.997Z,15.47
2023-05-19T05:38:11.478Z,15.65
2023-05-19T05:41:15.875Z,15.73
2023-05-19T05:44:18.711Z,16.04
2023-05-19T05:47:22.181Z,16.04
2023-05-19T05:50:25.150Z,16.08
2023-05-19T05:53:32.356Z,16.28
2023-05-19T05:56:37.168Z,16.58
2023-05-19T05:59:41.004Z,16.73
2023-05-19T06:02:46.707Z,16.83
2023-05-19T06:05:50.072Z,16.73
2023-05-19T06:08:52.787Z,16.51
2023-05-19T06:12:01.940Z,16.47
2023-05-19T06:15:08.099Z,16.42
2023-05-19T06:18:11.957Z,16.46
2023-05-19T06:21:15.775Z,16.33
2023-05-19T06:24:19.731Z,16.51
2023-05-19T06:27:23.136Z,16.87
2023-05-19T06:30:26.577Z,17.08
2023-05-19T06:33:29.761Z,17.24
2023-05-19T06:36:35.260Z,17.10
2023-05-19T06:39:38.497Z,17.00
2023-05-19T06:42:41.399Z,16.85
2023-05-19T06:45:49.427Z,16.94
2023-05-19T06:48:52.386Z,16.96
2023-05-19T06:51:55.726Z,17.22
2023-05-19T06:54:58.975Z,17.28
2023-05-19T06:58:01.890Z,17.48
2023-05-19T07:01:06.040Z,17.61
2023-05-19T07:04:09.709Z,17.75
2023-05-19T07:07:13.129Z,17.87
2023-05-19T07:10:15.935Z,18.03
2023-05-19T07:13:19.438Z,18.33
2023-05-19T07:16:22.551Z,18.48
2023-05-19T07:19:25.728Z,18.50
2023-05-19T07:22:30.122Z,18.55
2023-05-19T07:25:33.361Z,18.61
2023-05-19T07:28:36.089Z,18.79
2023-05-19T07:31:39.192Z,18.95
2023-05-19T07:34:41.835Z,18.90
2023-05-19T07:37:44.762Z,19.23
2023-05-19T07:40:47.380Z,19.49
2023-05-19T07:43:50.344Z,19.69
2023-05-19T07:46:54.292Z,19.70
2023-05-19T07:49:57.205Z,19.52
2023-05-19T07:53:02.772Z,19.84
2023-05-19T07:56:06.557Z,19.91
2023-05-19T07:59:09.212Z,20.02
2023-05-19T08:02:12.141Z,20.13
2023-05-19T08:05:15.187Z,20.46
2023-05-19T08:08:19.644Z,20.71
2023-05-19T08:11:22.626Z,20.98
2023-05-19T08:14:26.239Z,20.95
2023-05-19T08:17:29.326Z,21.01
2023-05-19T08:20:32.934Z,21.61
2023-05-19T08:23:37.414Z,21.54
2023-05-19T08:26:40.305Z,21.45
2023-05-19T08:29:43.458Z,20.98
2023-05-19T08:32:46.507Z,20.55
2023-05-19T08:35:49.553Z,20.27
2023-05-19T08:38:52.136Z,20.02
2023-05-19T08:41:55.397Z,20.36
2023-05-19T08:44:58.153Z,20.50
2023-05-19T08:48:01.231Z,20.65
2023-05-19T08:51:17.914Z,20.81
2023-05-19T08:54:25.648Z,20.79
2023-05-19T08:57:28.730Z,20.49
2023-05-19T09:00:33.085Z,20.03
2023-05-19T09:03:39.593Z,19.90
2023-05-19T09:06:44.566Z,20.28
2023-05-19T09:09:47.801Z,20.53
2023-05-19T09:12:51.496Z,20.69
2023-05-19T09:15:56.260Z,20.54
2023-05-19T09:19:01.120Z,20.64
2023-05-19T09:22:03.906Z,20.90
2023-05-19T09:25:17.435Z,21.31
2023-05-19T09:28:30.595Z,21.49
2023-05-19T09:31:33.930Z,21.44
2023-05-19T09:34:41.782Z,21.38
2023-05-19T09:37:44.729Z,21.53
2023-05-19T09:40:49.821Z,21.85
2023-05-19T09:43:58.566Z,21.96
2023-05-19T09:47:02.246Z,21.96
2023-05-19T09:50:08.548Z,21.67
2023-05-19T09:53:14.132Z,21.31
2023-05-19T09:56:17.353Z,21.11
2023-05-19T09:59:24.148Z,21.23
2023-05-19T10:02:28.245Z,21.43
2023-05-19T10:05:32.353Z,22.05
2023-05-19T10:08:36.110Z,22.37
2023-05-19T10:11:39.757Z,22.48
2023-05-19T10:14:42.489Z,22.56
2023-05-19T10:17:45.743Z,22.28
2023-05-19T10:20:50.153Z,22.19
2023-05-19T10:23:53.327Z,22.45
2023-05-19T10:27:03.880Z,22.20
2023-05-19T10:30:16.816Z,22.54
2023-05-19T10:33:21.205Z,22.49
2023-05-19T10:36:39.148Z,22.43
2023-05-19T10:39:43.656Z,22.85
2023-05-19T10:43:08.094Z,23.00
2023-05-19T10:46:10.689Z,23.17
2023-05-19T10:49:23.668Z,23.44
2023-05-19T10:52:26.452Z,23.14
2023-05-19T10:56:10.244Z,22.87
2023-05-19T10:59:32.513Z,23.16
2023-05-19T11:02:44.489Z,22.90
2023-05-19T11:05:50.101Z,22.24
2023-05-19T11:08:55.532Z,22.07
2023-05-19T11:12:03.860Z,22.51
2023-05-19T11:15:10.049Z,23.03
2023-05-19T11:18:16.104Z,23.24
2023-05-19T11:21:20.607Z,23.44
2023-05-19T11:24:40.038Z,23.11
2023-05-19T11:27:46.659Z,23.31
2023-05-19T11:30:50.727Z,23.13
2023-05-19T11:33:54.406Z,22.72
2023-05-19T11:36:57.669Z,22.40
2023-05-19T11:40:07.002Z,22.54
2023-05-19T11:43:09.691Z,22.76
2023-05-19T11:46:12.662Z,23.07
2023-05-19T11:49:15.923Z,23.30
2023-05-19T11:52:21.944Z,23.40
2023-05-19T11:55:25.289Z,23.37
2023-05-19T11:58:28.332Z,23.45
2023-05-19T12:01:32.011Z,23.91
2023-05-19T12:04:35.059Z,23.85
2023-05-19T12:07:39.527Z,23.76
2023-05-19T12:10:42.749Z,23.70
2023-05-19T12:13:45.744Z,23.81
2023-05-19T12:16:48.743Z,24.04
2023-05-19T12:19:51.907Z,24.14
2023-05-19T12:22:59.280Z,24.09
2023-05-19T12:26:02.204Z,24.16
2023-05-19T12:29:06.766Z,23.88
2023-05-19T12:32:10.306Z,23.87
2023-05-19T12:35:15.388Z,23.88
2023-05-19T12:38:19.615Z,23.92
2023-05-19T12:41:24.970Z,24.04
2023-05-19T12:44:28.126Z,23.83
2023-05-19T12:47:33.523Z,23.72
2023-05-19T12:50:37.923Z,23.51
2023-05-19T12:53:42.507Z,23.81
2023-05-19T12:56:52.377Z,24.01
2023-05-19T13:00:25.654Z,23.99
2023-05-19T13:03:28.426Z,23.97
2023-05-19T13:06:32.881Z,24.13
2023-05-19T13:09:36.500Z,24.02
2023-05-19T13:12:39.349Z,24.19
2023-05-19T13:15:48.733Z,23.85
2023-05-19T13:18:52.336Z,24.03
2023-05-19T13:21:55.619Z,24.22
2023-05-19T13:24:59.904Z,24.71
2023-05-19T13:28:05.636Z,24.87
2023-05-19T13:31:08.723Z,24.98
2023-05-19T13:34:11.366Z,25.11
2023-05-19T13:37:14.524Z,25.11
2023-05-19T13:40:17.840Z,25.19
2023-05-19T13:43:20.722Z,24.91
2023-05-19T13:46:32.734Z,24.97
2023-05-19T13:49:46.622Z,25.11
2023-05-19T13:52:49.304Z,25.27
2023-05-19T13:55:55.141Z,25.31
2023-05-19T13:58:57.910Z,25.47
2023-05-19T14:02:02.890Z,25.58
2023-05-19T14:05:07.754Z,25.04
2023-05-19T14:08:11.339Z,24.92
2023-05-19T14:11:19.659Z,25.26
2023-05-19T14:14:22.798Z,25.47
2023-05-19T14:17:27.571Z,26.19
2023-05-19T14:20:32.346Z,26.94
2023-05-19T14:23:35.256Z,27.21
2023-05-19T14:26:37.809Z,27.62
2023-05-19T14:29:41.904Z,27.46
2023-05-19T14:32:44.536Z,27.82
2023-05-19T14:35:47.483Z,27.36
2023-05-19T14:38:50.188Z,27.08
2023-05-19T14:41:53.159Z,27.65
2023-05-19T14:44:55.977Z,28.30
2023-05-19T14:47:59.355Z,28.63
2023-05-19T14:51:02.060Z,28.76
2023-05-19T14:54:05.049Z,29.10
2023-05-19T14:57:08.216Z,29.01
2023-05-19T15:00:11.643Z,29.57
2023-05-19T15:03:14.734Z,31.35
2023-05-19T15:06:17.797Z,32.58
2023-05-19T15:09:20.468Z,33.43
2023-05-19T15:12:23.440Z,34.84
2023-05-19T15:15:26.388Z,35.54
2023-05-19T15:18:29.292Z,36.58
2023-05-19T15:21:31.946Z,36.72
2023-05-19T15:24:34.864Z,34.47
2023-05-19T15:27:37.815Z,34.51
2023-05-19T15:30:42.876Z,35.50
2023-05-19T15:33:45.547Z,35.93
2023-05-19T15:36:48.615Z,37.11
2023-05-19T15:39:51.794Z,36.20
2023-05-19T15:42:54.691Z,32.77
2023-05-19T15:45:57.337Z,30.52
2023-05-19T15:49:00.561Z,28.83
2023-05-19T15:52:03.881Z,27.43
2023-05-19T15:55:07.902Z,26.59
2023-05-19T15:58:10.616Z,25.92
2023-05-19T16:01:14.728Z,25.79
2023-05-19T16:04:17.968Z,25.57
2023-05-19T16:07:22.552Z,25.64
2023-05-19T16:10:25.566Z,25.46
2023-05-19T16:13:28.361Z,25.30
2023-05-19T16:16:31.251Z,25.37
2023-05-19T16:19:34.035Z,25.18
2023-05-19T16:22:36.956Z,25.07
2023-05-19T16:25:39.593Z,24.98
2023-05-19T16:28:42.460Z,24.70
2023-05-19T16:31:45.157Z,24.42
2023-05-19T16:34:48.199Z,24.28
2023-05-19T16:37:50.855Z,24.20
2023-05-19T16:40:53.839Z,24.17
2023-05-19T16:43:56.727Z,24.12
2023-05-19T16:46:59.674Z,24.12
2023-05-19T16:50:02.873Z,23.96
2023-05-19T16:53:05.895Z,23.87
2023-05-19T16:56:08.475Z,23.68
2023-05-19T16:59:11.417Z,23.43
2023-05-19T17:02:14.062Z,23.29
2023-05-19T17:05:17.317Z,23.20
2023-05-19T17:08:19.953Z,22.99
2023-05-19T17:11:22.950Z,22.92
2023-05-19T17:14:25.740Z,22.68
2023-05-19T17:17:28.655Z,22.54
2023-05-19T17:20:32.018Z,22.39
2023-05-19T17:23:35.206Z,22.22
2023-05-19T17:26:37.916Z,22.02
2023-05-19T17:29:40.899Z,21.86
2023-05-19T17:32:43.641Z,21.74
2023-05-19T17:35:46.654Z,21.64
2023-05-19T17:38:49.306Z,21.51
2023-05-19T17:41:52.267Z,21.41
2023-05-19T17:44:54.960Z,21.30
2023-05-19T17:47:57.974Z,21.14
2023-05-19T17:51:00.748Z,20.96
2023-05-19T17:54:04.034Z,20.83
2023-05-19T17:57:12.434Z,20.57
2023-05-19T18:00:16.300Z,20.39
2023-05-19T18:03:19.835Z,20.22
2023-05-19T18:06:24.241Z,20.02
2023-05-19T18:09:29.193Z,19.83
2023-05-19T18:12:32.199Z,19.59
2023-05-19T18:15:35.393Z,19.39
2023-05-19T18:18:40.203Z,19.16
2023-05-19T18:21:43.170Z,18.96
2023-05-19T18:24:46.108Z,18.82
2023-05-19T18:27:49.086Z,18.64
2023-05-19T18:31:05.112Z,18.47
2023-05-19T18:34:08.088Z,18.30
2023-05-19T18:37:10.923Z,18.15
2023-05-19T18:40:13.758Z,18.02
2023-05-19T18:43:16.478Z,17.89
2023-05-19T18:46:19.892Z,17.80
2023-05-19T18:49:24.905Z,17.66
2023-05-19T18:52:28.670Z,17.54
2023-05-19T18:55:31.354Z,17.43
2023-05-19T18:58:34.252Z,17.37
2023-05-19T19:01:36.891Z,17.30
2023-05-19T19:04:40.018Z,17.25
2023-05-19T19:07:44.398Z,17.23
2023-05-19T19:10:50.401Z,17.17
2023-05-19T19:13:55.566Z,17.10
2023-05-19T19:16:58.604Z,17.01
2023-05-19T19:20:01.282Z,16.97
2023-05-19T19:23:06.665Z,16.88
2023-05-19T19:26:09.667Z,16.78
2023-05-19T19:29:12.675Z,16.72
2023-05-19T19:32:15.371Z,16.68
2023-05-19T19:35:18.503Z,16.60
2023-05-19T19:38:21.218Z,16.56
2023-05-19T19:41:25.381Z,16.54
2023-05-19T19:44:28.028Z,16.51
2023-05-19T19:47:31.348Z,16.56
2023-05-19T19:50:34.460Z,16.67
2023-05-19T19:53:37.730Z,16.73
2023-05-19T19:56:40.413Z,16.73
2023-05-19T19:59:43.671Z,16.69
2023-05-19T20:05:55.080Z,16.68
2023-05-19T20:08:57.699Z,16.65
2023-05-19T20:12:00.836Z,16.71
2023-05-19T20:15:03.804Z,16.79
2023-05-19T20:18:06.781Z,16.84
2023-05-19T20:21:09.476Z,16.85
2023-05-19T20:24:12.494Z,16.85
2023-05-19T20:27:15.205Z,16.81
2023-05-19T20:30:18.249Z,16.77
2023-05-19T20:33:21.358Z,16.78
2023-05-19T20:36:24.403Z,16.78
2023-05-19T20:39:27.038Z,16.73
2023-05-19T20:42:29.957Z,16.73
2023-05-19T20:45:32.870Z,16.70
2023-05-19T20:48:36.251Z,16.67
2023-05-19T20:51:38.830Z,16.64
2023-05-19T20:54:42.054Z,16.59
2023-05-19T20:57:44.810Z,16.56
2023-05-19T21:00:48.745Z,16.55
2023-05-19T21:03:51.564Z,16.56
2023-05-19T21:06:54.634Z,16.57
2023-05-19T21:09:57.957Z,16.50
2023-05-19T21:13:00.920Z,16.44
2023-05-19T21:16:03.559Z,16.33
2023-05-19T21:19:06.996Z,16.29
2023-05-19T21:22:09.717Z,16.22
2023-05-19T21:25:12.975Z,16.07
2023-05-19T21:28:15.749Z,15.99
2023-05-19T21:31:19.073Z,15.93
2023-05-19T21:34:23.456Z,15.87
2023-05-19T21:37:26.422Z,15.77
2023-05-19T21:40:28.987Z,15.69
2023-05-19T21:43:31.980Z,15.60
2023-05-19T21:46:34.766Z,15.54
2023-05-19T21:49:39.979Z,15.53
2023-05-19T21:52:42.904Z,15.44
2023-05-19T21:55:46.073Z,15.37
2023-05-19T21:58:48.662Z,15.34
2023-05-19T22:01:51.528Z,15.34
2023-05-19T22:04:54.426Z,15.34
2023-05-19T22:07:57.096Z,15.30
2023-05-19T22:11:00.041Z,15.28
2023-05-19T22:14:02.716Z,15.28
2023-05-19T22:17:05.598Z,15.25
2023-05-19T22:20:09.491Z,15.24
2023-05-19T22:23:12.382Z,15.26
2023-05-19T22:26:14.920Z,15.25
2023-05-19T22:29:18.685Z,15.18
2023-05-19T22:32:21.388Z,15.10
2023-05-19T22:35:24.399Z,15.16
2023-05-19T22:38:27.000Z,15.11
2023-05-19T22:41:29.826Z,15.06
2023-05-19T22:44:32.461Z,15.05
2023-05-19T22:47:35.459Z,15.01
2023-05-19T22:50:38.112Z,15.02
2023-05-19T22:53:42.597Z,14.98
2023-05-19T22:56:46.358Z,14.93
2023-05-19T22:59:49.394Z,14.93
2023-05-19T23:02:52.212Z,14.87
2023-05-19T23:05:55.335Z,14.88
2023-05-19T23:09:02.600Z,14.95
2023-05-19T23:12:05.963Z,14.91
2023-05-19T23:15:09.732Z,14.80
2023-05-19T23:18:14.735Z,14.70
2023-05-19T23:21:17.362Z,14.59
2023-05-19T23:24:20.203Z,14.51
2023-05-19T23:27:22.863Z,14.48
2023-05-19T23:30:30.414Z,14.47
2023-05-19T23:33:33.028Z,14.49
2023-05-19T23:36:36.700Z,14.43
2023-05-19T23:39:39.576Z,14.41
2023-05-19T23:42:44.292Z,14.44
2023-05-19T23:45:46.814Z,14.49
2023-05-19T23:48:49.607Z,14.41
2023-05-19T23:51:52.519Z,14.37
2023-05-19T23:54:55.485Z,14.36
2023-05-19T23:57:58.069Z,14.37
